Time;durP1;ratioP1;P1;durP2;ratioP2;P2;SDS_P1;SDS_P2;PMS_P1;PMS_P2;Temp;Humidity;BMP_temperature;BMP_pressure;BME280_temperature;BME280_humidity;BME280_pressure;Samples;Min_cycle;Max_cycle;Signal;HPM_P1;HPM_P2
2021/01/14 00:00:38;;;;;;;12.00;2.27;;;;;;;;;;10170755;29;20224;-91
2021/01/14 00:05:40;;;;;;;7.63;2.03;;;;;;;;;;10170446;29;20243;-93
2021/01/14 00:10:42;;;;;;;10.17;1.97;;;;;;;;;;10176981;29;20223;-92
2021/01/14 00:15:44;;;;;;;7.47;2.27;;;;;;;;;;10167508;29;20234;-91
2021/01/14 00:20:46;;;;;;;6.30;1.90;;;;;;;;;;10170058;29;20243;-92
2021/01/14 00:25:49;;;;;;;11.33;2.40;;;;;;;;;;10170822;29;20235;-92
2021/01/14 00:30:51;;;;;;;8.73;2.20;;;;;;;;;;10176075;29;20584;-92
2021/01/14 00:35:53;;;;;;;11.53;2.00;;;;;;;;;;10184655;29;20215;-93
2021/01/14 00:40:55;;;;;;;4.53;1.50;;;;;;;;;;10177155;29;20486;-91
2021/01/14 00:45:57;;;;;;;6.97;1.90;;;;;;;;;;10175639;29;20801;-91
2021/01/14 00:50:59;;;;;;;6.87;1.90;;;;;;;;;;10159780;29;20342;-92
2021/01/14 00:56:02;;;;;;;9.00;1.73;;;;;;;;;;10163878;29;20619;-92
2021/01/14 01:01:04;;;;;;;5.83;1.60;;;;;;;;;;10168993;29;20218;-92
2021/01/14 01:06:06;;;;;;;6.87;1.63;;;;;;;;;;10177660;29;20232;-91
2021/01/14 01:11:08;;;;;;;10.43;2.37;;;;;;;;;;10183899;29;20227;-91
2021/01/14 01:16:15;;;;;;;14.37;2.70;;;;;;;;;;10167401;29;20553;-92
2021/01/14 01:21:17;;;;;;;11.30;2.00;;;;;;;;;;10165274;29;20243;-92
2021/01/14 01:26:20;;;;;;;11.77;2.20;;;;;;;;;;10169818;29;20361;-93
2021/01/14 01:31:22;;;;;;;7.40;1.93;;;;;;;;;;10175747;29;20216;-93
2021/01/14 01:36:24;;;;;;;10.80;2.10;;;;;;;;;;10171722;29;20219;-92
2021/01/14 01:41:26;;;;;;;5.03;1.87;;;;;;;;;;10161792;29;20223;-91
2021/01/14 01:46:29;;;;;;;9.57;2.63;;;;;;;;;;10163561;29;20255;-92
2021/01/14 01:51:32;;;;;;;19.87;4.03;;;;;;;;;;10159796;29;20216;-92
2021/01/14 01:56:36;;;;;;;11.77;3.60;;;;;;;;;;10164429;29;20236;-93
2021/01/14 02:01:38;;;;;;;9.77;2.67;;;;;;;;;;10170805;29;20207;-92
2021/01/14 02:06:44;;;;;;;5.50;1.83;;;;;;;;;;10179012;29;20382;-90
2021/01/14 02:11:50;;;;;;;5.83;1.70;;;;;;;;;;10159920;29;20621;-92
2021/01/14 02:16:53;;;;;;;5.70;1.50;;;;;;;;;;10158078;29;20219;-93
2021/01/14 02:21:57;;;;;;;7.70;1.50;;;;;;;;;;10169302;29;20282;-91
2021/01/14 02:27:00;;;;;;;8.93;2.10;;;;;;;;;;10169809;29;20239;-93
2021/01/14 02:32:02;;;;;;;7.53;1.97;;;;;;;;;;10183483;29;20564;-92
2021/01/14 02:37:04;;;;;;;5.93;1.90;;;;;;;;;;10178198;29;20243;-92
2021/01/14 02:42:07;;;;;;;7.50;1.73;;;;;;;;;;10169807;29;20214;-92
2021/01/14 02:47:10;;;;;;;6.70;1.67;;;;;;;;;;10178481;29;20334;-94
2021/01/14 02:52:13;;;;;;;8.90;1.97;;;;;;;;;;10172484;29;20693;-94
2021/01/14 02:57:17;;;;;;;9.77;1.90;;;;;;;;;;10156089;29;20218;-92
2021/01/14 03:02:18;;;;;;;6.63;1.77;;;;;;;;;;10160830;29;20227;-91
2021/01/14 03:07:20;;;;;;;7.47;1.50;;;;;;;;;;10167144;29;20247;-90
2021/01/14 03:12:23;;;;;;;6.33;1.70;;;;;;;;;;10175934;29;20479;-91
2021/01/14 03:17:25;;;;;;;8.27;1.90;;;;;;;;;;10162624;29;20216;-91
2021/01/14 03:22:28;;;;;;;8.80;1.90;;;;;;;;;;10161322;29;20243;-91
2021/01/14 03:27:30;;;;;;;4.90;1.60;;;;;;;;;;10167414;29;20249;-92
2021/01/14 03:32:32;;;;;;;8.57;1.80;;;;;;;;;;10165246;29;20216;-93
2021/01/14 03:37:36;;;;;;;6.63;2.03;;;;;;;;;;10163103;28;20653;-93
2021/01/14 03:42:39;;;;;;;5.63;1.60;;;;;;;;;;10162735;29;20669;-92
2021/01/14 03:47:41;;;;;;;8.33;2.20;;;;;;;;;;10157271;29;20242;-93
2021/01/14 03:52:43;;;;;;;8.17;1.97;;;;;;;;;;10171137;29;20236;-92
2021/01/14 03:57:46;;;;;;;5.20;2.17;;;;;;;;;;10160439;29;20287;-94
2021/01/14 04:02:48;;;;;;;5.67;1.90;;;;;;;;;;10168879;29;20210;-92
2021/01/14 04:07:50;;;;;;;7.50;1.93;;;;;;;;;;10168615;29;20242;-90
2021/01/14 04:12:53;;;;;;;8.17;2.10;;;;;;;;;;10167774;29;21452;-93
2021/01/14 04:17:55;;;;;;;6.60;1.90;;;;;;;;;;10150892;29;20240;-88
2021/01/14 04:22:57;;;;;;;3.87;1.80;;;;;;;;;;10160663;29;20765;-89
2021/01/14 04:28:00;;;;;;;5.93;1.70;;;;;;;;;;10159699;29;20236;-89
2021/01/14 04:33:11;;;;;;;4.53;1.30;;;;;;;;;;10176384;29;20245;-89
2021/01/14 04:38:14;;;;;;;7.00;2.00;;;;;;;;;;10200584;28;20211;-89
2021/01/14 04:43:17;;;;;;;7.03;1.97;;;;;;;;;;10193344;28;20392;-90
2021/01/14 04:48:20;;;;;;;8.50;2.13;;;;;;;;;;10193020;28;20314;-90
2021/01/14 04:53:24;;;;;;;6.93;2.00;;;;;;;;;;10200360;28;20231;-91
2021/01/14 04:58:27;;;;;;;3.97;1.57;;;;;;;;;;10194950;28;20302;-89
2021/01/14 05:03:31;;;;;;;6.83;1.77;;;;;;;;;;10199625;28;20440;-89
2021/01/14 05:08:34;;;;;;;4.83;1.60;;;;;;;;;;10177382;29;20307;-90
2021/01/14 05:13:38;;;;;;;6.30;2.00;;;;;;;;;;10182191;29;20282;-90
2021/01/14 05:18:41;;;;;;;8.93;1.70;;;;;;;;;;10164570;29;20805;-90
2021/01/14 05:23:43;;;;;;;6.57;1.60;;;;;;;;;;10150847;29;20236;-90
2021/01/14 05:28:46;;;;;;;5.87;1.80;;;;;;;;;;10138060;29;20236;-88
2021/01/14 05:33:57;;;;;;;9.03;1.80;;;;;;;;;;10144729;29;20246;-91
2021/01/14 05:38:59;;;;;;;5.80;2.00;;;;;;;;;;10143949;29;20216;-89
2021/01/14 05:44:03;;;;;;;9.00;1.77;;;;;;;;;;10140415;29;20220;-89
2021/01/14 05:49:05;;;;;;;10.07;1.90;;;;;;;;;;10162147;29;20979;-90
2021/01/14 05:54:07;;;;;;;5.23;1.60;;;;;;;;;;10149772;29;20208;-88
2021/01/14 05:59:10;;;;;;;4.87;1.50;;;;;;;;;;10154555;29;20685;-89
2021/01/14 06:04:16;;;;;;;7.40;1.83;;;;;;;;;;10156947;29;20225;-90
2021/01/14 06:09:22;;;;;;;5.53;1.90;;;;;;;;;;10163980;29;20243;-89
2021/01/14 06:14:30;;;;;;;4.93;1.80;;;;;;;;;;10132589;29;20223;-88
2021/01/14 06:19:32;;;;;;;4.37;1.60;;;;;;;;;;10154800;29;20219;-90
2021/01/14 06:24:36;;;;;;;10.60;2.10;;;;;;;;;;10145949;29;20240;-80
2021/01/14 06:29:39;;;;;;;5.03;1.43;;;;;;;;;;10133541;29;20250;-86
2021/01/14 06:34:42;;;;;;;5.67;1.73;;;;;;;;;;10125276;29;20649;-88
2021/01/14 06:39:44;;;;;;;4.63;1.60;;;;;;;;;;10141172;29;20227;-86
2021/01/14 06:44:51;;;;;;;6.30;1.87;;;;;;;;;;10122751;29;22716;-78
2021/01/14 06:49:56;;;;;;;5.43;1.67;;;;;;;;;;10127962;29;20223;-81
2021/01/14 06:55:00;;;;;;;5.73;1.50;;;;;;;;;;10125824;29;20217;-81
2021/01/14 07:00:03;;;;;;;6.03;1.87;;;;;;;;;;10133508;29;20234;-76
2021/01/14 07:05:06;;;;;;;9.37;2.30;;;;;;;;;;10130980;29;20246;-83
2021/01/14 07:10:09;;;;;;;6.77;2.00;;;;;;;;;;10131717;29;20713;-89
2021/01/14 07:15:12;;;;;;;11.57;2.50;;;;;;;;;;10139353;29;20220;-80
2021/01/14 07:20:14;;;;;;;4.53;1.70;;;;;;;;;;10144253;29;20552;-81
2021/01/14 07:25:17;;;;;;;5.93;2.10;;;;;;;;;;10132372;29;20739;-81
2021/01/14 07:30:20;;;;;;;7.80;2.27;;;;;;;;;;10133727;29;20220;-81
2021/01/14 07:35:33;;;;;;;4.93;1.70;;;;;;;;;;10141244;29;20700;-81
2021/01/14 07:40:36;;;;;;;7.53;2.20;;;;;;;;;;10134302;29;20810;-80
2021/01/14 07:45:39;;;;;;;9.00;2.63;;;;;;;;;;10137191;29;20229;-86
2021/01/14 07:50:48;;;;;;;7.93;2.50;;;;;;;;;;10139119;29;20227;-82
2021/01/14 07:55:50;;;;;;;6.80;2.33;;;;;;;;;;10151204;29;20214;-90
2021/01/14 08:01:00;;;;;;;4.00;2.10;;;;;;;;;;10165625;29;20216;-80
2021/01/14 08:06:26;;;;;;;8.67;2.70;;;;;;;;;;10123509;29;20709;-89
2021/01/14 08:11:29;;;;;;;8.97;2.40;;;;;;;;;;10141505;29;20520;-86
2021/01/14 08:16:33;;;;;;;7.60;2.33;;;;;;;;;;10142620;29;20628;-86
2021/01/14 08:21:35;;;;;;;10.80;2.50;;;;;;;;;;10135014;29;20657;-80
2021/01/14 08:26:53;;;;;;;6.97;2.30;;;;;;;;;;10142914;29;20239;-88
2021/01/14 08:31:56;;;;;;;8.40;2.43;;;;;;;;;;10140099;29;20207;-83
2021/01/14 08:37:27;;;;;;;5.67;2.03;;;;;;;;;;10140006;29;20761;-80
2021/01/14 08:42:32;;;;;;;5.80;2.13;;;;;;;;;;10133656;29;21077;-81
2021/01/14 08:47:53;;;;;;;7.60;2.30;;;;;;;;;;10147136;29;20722;-87
2021/01/14 08:52:56;;;;;;;6.97;1.93;;;;;;;;;;10153614;29;20655;-88
2021/01/14 08:57:58;;;;;;;6.93;2.10;;;;;;;;;;10154640;29;20220;-88
2021/01/14 09:03:00;;;;;;;6.23;2.10;;;;;;;;;;10144476;29;20763;-88
2021/01/14 09:08:07;;;;;;;8.57;2.00;;;;;;;;;;10155770;29;20343;-87
2021/01/14 09:13:10;;;;;;;6.43;2.07;;;;;;;;;;10158938;29;20627;-87
2021/01/14 09:18:13;;;;;;;5.27;2.00;;;;;;;;;;10148163;29;20216;-91
2021/01/14 09:23:18;;;;;;;6.43;2.13;;;;;;;;;;10185187;29;20253;-91
2021/01/14 09:28:21;;;;;;;6.43;1.67;;;;;;;;;;10167453;29;20602;-89
2021/01/14 09:33:26;;;;;;;6.63;2.10;;;;;;;;;;10148260;29;20334;-87
2021/01/14 09:38:36;;;;;;;7.53;2.40;;;;;;;;;;10158322;29;20669;-84
2021/01/14 09:43:39;;;;;;;5.90;1.80;;;;;;;;;;10135412;29;20526;-86
2021/01/14 09:48:41;;;;;;;8.00;1.90;;;;;;;;;;10150499;29;20235;-86
2021/01/14 09:53:45;;;;;;;6.43;2.33;;;;;;;;;;10146195;29;20716;-86
2021/01/14 09:58:49;;;;;;;7.70;2.30;;;;;;;;;;10134110;29;20239;-86
2021/01/14 10:03:59;;;;;;;11.83;2.17;;;;;;;;;;10149298;29;20248;-87
2021/01/14 10:09:02;;;;;;;9.10;2.40;;;;;;;;;;10143194;29;20247;-89
2021/01/14 10:14:04;;;;;;;4.97;2.03;;;;;;;;;;10138357;29;20221;-89
2021/01/14 10:19:09;;;;;;;4.23;2.00;;;;;;;;;;10164412;29;20291;-90
2021/01/14 10:24:20;;;;;;;9.57;2.17;;;;;;;;;;10143887;29;20235;-90
2021/01/14 10:29:28;;;;;;;8.47;2.40;;;;;;;;;;10163500;29;20239;-90
2021/01/14 10:34:43;;;;;;;8.53;2.50;;;;;;;;;;10167823;29;20222;-89
2021/01/14 10:39:46;;;;;;;9.40;2.47;;;;;;;;;;10162770;29;20218;-89
2021/01/14 10:44:54;;;;;;;10.07;2.90;;;;;;;;;;10149434;29;20215;-88
2021/01/14 10:49:56;;;;;;;5.33;2.80;;;;;;;;;;10152523;29;20267;-89
2021/01/14 10:55:03;;;;;;;7.43;2.87;;;;;;;;;;10150775;29;20627;-87
2021/01/14 11:00:14;;;;;;;10.20;3.03;;;;;;;;;;10151714;29;20571;-86
2021/01/14 11:05:16;;;;;;;8.67;2.70;;;;;;;;;;10143093;29;20226;-85
2021/01/14 11:10:25;;;;;;;8.60;2.93;;;;;;;;;;10150321;29;20234;-89
2021/01/14 11:15:27;;;;;;;9.20;2.93;;;;;;;;;;10146394;29;20216;-88
2021/01/14 11:20:29;;;;;;;8.07;2.80;;;;;;;;;;10145559;29;20603;-87
2021/01/14 11:25:34;;;;;;;7.90;3.00;;;;;;;;;;10152388;29;20241;-88
2021/01/14 11:30:36;;;;;;;9.20;3.17;;;;;;;;;;10141863;29;20303;-87
2021/01/14 11:35:38;;;;;;;9.90;3.17;;;;;;;;;;10160723;29;20219;-86
2021/01/14 11:40:41;;;;;;;8.00;2.97;;;;;;;;;;10160332;29;20215;-88
2021/01/14 11:45:43;;;;;;;6.10;2.93;;;;;;;;;;10145233;29;20435;-88
2021/01/14 11:50:45;;;;;;;7.87;2.97;;;;;;;;;;10153133;29;20334;-86
2021/01/14 11:55:47;;;;;;;9.43;3.03;;;;;;;;;;10161839;29;20212;-89
2021/01/14 12:00:49;;;;;;;9.40;2.93;;;;;;;;;;10142127;29;21004;-86
2021/01/14 12:05:51;;;;;;;5.73;2.90;;;;;;;;;;10147328;29;20232;-87
2021/01/14 12:10:54;;;;;;;8.33;2.90;;;;;;;;;;10149010;29;20389;-89
2021/01/14 12:15:56;;;;;;;7.90;2.97;;;;;;;;;;10145103;29;20599;-86
2021/01/14 12:20:58;;;;;;;11.20;3.00;;;;;;;;;;10160640;29;20251;-87
2021/01/14 12:26:01;;;;;;;5.93;2.97;;;;;;;;;;10154987;29;20722;-87
2021/01/14 12:31:03;;;;;;;8.93;3.20;;;;;;;;;;10151463;29;20553;-89
2021/01/14 12:36:05;;;;;;;10.30;3.03;;;;;;;;;;10154685;29;20290;-87
2021/01/14 12:41:07;;;;;;;7.43;3.00;;;;;;;;;;10163804;29;20626;-90
2021/01/14 12:46:10;;;;;;;6.00;2.80;;;;;;;;;;10160954;29;20251;-83
2021/01/14 12:51:19;;;;;;;8.77;3.37;;;;;;;;;;10159672;29;20760;-83
2021/01/14 12:56:23;;;;;;;8.40;3.27;;;;;;;;;;10139086;29;20220;-82
2021/01/14 13:01:28;;;;;;;6.83;3.37;;;;;;;;;;10134469;29;20214;-83
2021/01/14 13:06:31;;;;;;;7.47;3.03;;;;;;;;;;10144671;29;20315;-82
2021/01/14 13:11:34;;;;;;;9.67;3.03;;;;;;;;;;10147420;29;20870;-86
2021/01/14 13:16:39;;;;;;;7.03;2.87;;;;;;;;;;10123521;29;20236;-84
2021/01/14 13:21:41;;;;;;;7.07;2.80;;;;;;;;;;10145883;29;20624;-80
2021/01/14 13:26:44;;;;;;;8.73;2.87;;;;;;;;;;10133403;29;20247;-80
2021/01/14 13:31:48;;;;;;;5.63;2.70;;;;;;;;;;10152552;29;20597;-92
2021/01/14 13:36:51;;;;;;;8.77;3.47;;;;;;;;;;10173434;29;20207;-94
2021/01/14 13:42:14;;;;;;;7.07;3.00;;;;;;;;;;10184118;29;20214;-92
2021/01/14 13:47:16;;;;;;;6.00;2.90;;;;;;;;;;10172044;29;20630;-92
2021/01/14 13:52:17;;;;;;;8.90;2.97;;;;;;;;;;10179866;29;20224;-92
2021/01/14 13:57:20;;;;;;;7.53;3.17;;;;;;;;;;10177362;29;20614;-93
2021/01/14 14:02:25;;;;;;;6.77;2.80;;;;;;;;;;10165155;29;20213;-91
2021/01/14 14:07:26;;;;;;;7.30;3.17;;;;;;;;;;10175540;29;20251;-92
2021/01/14 14:12:29;;;;;;;7.00;3.07;;;;;;;;;;10171238;29;20215;-91
2021/01/14 14:17:35;;;;;;;7.13;2.93;;;;;;;;;;10178574;29;20266;-92
2021/01/14 14:22:38;;;;;;;6.17;2.90;;;;;;;;;;10184435;29;20231;-90
2021/01/14 14:27:41;;;;;;;6.37;2.80;;;;;;;;;;10158157;29;20231;-88
2021/01/14 14:32:44;;;;;;;7.50;2.90;;;;;;;;;;10157711;29;20223;-88
2021/01/14 14:37:45;;;;;;;6.43;2.70;;;;;;;;;;10165907;29;20583;-89
2021/01/14 14:42:48;;;;;;;6.03;2.83;;;;;;;;;;10164083;29;20219;-85
2021/01/14 14:47:50;;;;;;;6.00;3.07;;;;;;;;;;10152548;29;20243;-86
2021/01/14 14:52:52;;;;;;;9.17;2.90;;;;;;;;;;10157798;29;20223;-81
2021/01/14 14:57:55;;;;;;;6.53;3.13;;;;;;;;;;10168296;29;20224;-87
2021/01/14 15:02:57;;;;;;;6.87;2.87;;;;;;;;;;10137140;29;20224;-80
2021/01/14 15:07:59;;;;;;;6.87;3.00;;;;;;;;;;10149022;29;20243;-84
2021/01/14 15:13:02;;;;;;;6.60;2.90;;;;;;;;;;10138808;29;20223;-87
2021/01/14 15:18:04;;;;;;;6.70;2.60;;;;;;;;;;10181767;29;20284;-89
2021/01/14 15:23:06;;;;;;;6.03;2.90;;;;;;;;;;10186312;29;20262;-86
2021/01/14 15:28:09;;;;;;;6.57;2.77;;;;;;;;;;10194560;28;20260;-86
2021/01/14 15:33:11;;;;;;;9.40;3.30;;;;;;;;;;10195320;29;20287;-85
2021/01/14 15:38:13;;;;;;;4.03;2.80;;;;;;;;;;10197047;29;21657;-85
2021/01/14 15:43:15;;;;;;;6.63;3.00;;;;;;;;;;10187935;29;20216;-85
2021/01/14 15:48:18;;;;;;;7.13;3.13;;;;;;;;;;10196035;29;20335;-86
2021/01/14 15:53:24;;;;;;;5.17;2.83;;;;;;;;;;10157562;29;20252;-93
2021/01/14 15:58:27;;;;;;;7.33;3.20;;;;;;;;;;10163991;29;20216;-81
2021/01/14 16:03:30;;;;;;;4.30;2.50;;;;;;;;;;10144724;29;21259;-86
2021/01/14 16:08:32;;;;;;;10.13;3.10;;;;;;;;;;10150524;29;20849;-79
2021/01/14 16:13:34;;;;;;;4.57;2.80;;;;;;;;;;10140847;29;20591;-80
2021/01/14 16:18:37;;;;;;;5.20;3.10;;;;;;;;;;10137505;29;20594;-80
2021/01/14 16:23:42;;;;;;;7.93;3.53;;;;;;;;;;10148546;29;20701;-80
2021/01/14 16:28:45;;;;;;;5.10;2.77;;;;;;;;;;10141963;29;20250;-84
2021/01/14 16:33:48;;;;;;;8.80;3.40;;;;;;;;;;10163501;29;20247;-90
2021/01/14 16:38:50;;;;;;;6.20;3.10;;;;;;;;;;10163708;29;20220;-84
2021/01/14 16:43:53;;;;;;;5.20;2.83;;;;;;;;;;10147017;29;20222;-87
2021/01/14 16:48:56;;;;;;;6.77;3.27;;;;;;;;;;10146606;29;20329;-85
2021/01/14 16:54:02;;;;;;;7.63;3.67;;;;;;;;;;10157676;29;20845;-84
2021/01/14 16:59:06;;;;;;;4.80;3.23;;;;;;;;;;10141060;29;20324;-84
2021/01/14 17:04:08;;;;;;;5.10;3.10;;;;;;;;;;10137856;29;20223;-85
2021/01/14 17:09:10;;;;;;;6.70;3.40;;;;;;;;;;10145429;29;20251;-83
2021/01/14 17:14:14;;;;;;;6.67;3.97;;;;;;;;;;10134415;29;20640;-81
2021/01/14 17:19:16;;;;;;;8.70;3.77;;;;;;;;;;10140987;29;22289;-80
2021/01/14 17:24:18;;;;;;;7.63;3.97;;;;;;;;;;10144393;29;20243;-83
2021/01/14 17:29:20;;;;;;;8.73;3.70;;;;;;;;;;10136091;29;20359;-86
2021/01/14 17:34:22;;;;;;;7.07;3.80;;;;;;;;;;10147095;29;20223;-76
2021/01/14 17:39:24;;;;;;;10.10;4.20;;;;;;;;;;10133680;29;20212;-77
2021/01/14 17:44:27;;;;;;;7.10;4.17;;;;;;;;;;10141842;29;20581;-78
2021/01/14 17:49:35;;;;;;;8.53;4.10;;;;;;;;;;10135632;29;20661;-86
2021/01/14 17:54:37;;;;;;;7.37;4.40;;;;;;;;;;10139080;29;20212;-87
2021/01/14 17:59:41;;;;;;;9.47;4.40;;;;;;;;;;10131698;29;20223;-84
2021/01/14 18:04:48;;;;;;;9.70;4.13;;;;;;;;;;10129117;29;20596;-86
2021/01/14 18:09:50;;;;;;;11.40;4.10;;;;;;;;;;10124212;29;20244;-85
2021/01/14 18:14:53;;;;;;;7.90;4.20;;;;;;;;;;10122404;29;20287;-84
2021/01/14 18:19:56;;;;;;;6.43;3.97;;;;;;;;;;10129840;29;20332;-85
2021/01/14 18:25:00;;;;;;;8.10;4.50;;;;;;;;;;10124417;29;20220;-84
2021/01/14 18:30:05;;;;;;;7.67;4.20;;;;;;;;;;10130159;29;22987;-85
2021/01/14 18:35:08;;;;;;;9.80;4.70;;;;;;;;;;10131068;29;20211;-84
2021/01/14 18:40:11;;;;;;;8.23;4.40;;;;;;;;;;10123284;29;20230;-84
2021/01/14 18:45:16;;;;;;;9.47;4.70;;;;;;;;;;10125917;29;20684;-83
2021/01/14 18:50:19;;;;;;;10.87;5.10;;;;;;;;;;10143573;29;20250;-84
2021/01/14 18:55:22;;;;;;;8.33;4.57;;;;;;;;;;10144909;29;20217;-85
2021/01/14 19:00:29;;;;;;;9.90;5.00;;;;;;;;;;10127211;29;20329;-85
2021/01/14 19:05:31;;;;;;;9.37;4.90;;;;;;;;;;10134527;29;20306;-85
2021/01/14 19:10:39;;;;;;;11.33;5.30;;;;;;;;;;10124916;29;20236;-84
2021/01/14 19:15:42;;;;;;;9.17;4.83;;;;;;;;;;10142573;29;20216;-85
2021/01/14 19:20:44;;;;;;;9.90;4.73;;;;;;;;;;10130426;29;20231;-83
2021/01/14 19:25:46;;;;;;;8.57;4.77;;;;;;;;;;10137936;29;20628;-85
2021/01/14 19:30:49;;;;;;;9.00;5.23;;;;;;;;;;10133436;29;20838;-87
2021/01/14 19:35:51;;;;;;;7.53;5.00;;;;;;;;;;10135402;29;20329;-85
2021/01/14 19:40:54;;;;;;;9.00;5.10;;;;;;;;;;10127717;29;20437;-85
2021/01/14 19:45:57;;;;;;;9.30;5.53;;;;;;;;;;10129981;29;20745;-85
2021/01/14 19:51:00;;;;;;;9.57;5.80;;;;;;;;;;10125642;29;20250;-84
2021/01/14 19:56:03;;;;;;;7.93;5.23;;;;;;;;;;10126269;29;20213;-85
2021/01/14 20:01:06;;;;;;;9.13;5.47;;;;;;;;;;10123049;29;20362;-83
2021/01/14 20:06:11;;;;;;;10.93;6.33;;;;;;;;;;10137750;29;20646;-85
2021/01/14 20:11:13;;;;;;;11.47;5.87;;;;;;;;;;10130619;29;20706;-84
2021/01/14 20:16:16;;;;;;;10.20;6.13;;;;;;;;;;10137227;29;20211;-83
2021/01/14 20:21:18;;;;;;;10.67;5.97;;;;;;;;;;10131711;29;20594;-91
2021/01/14 20:26:21;;;;;;;11.40;6.63;;;;;;;;;;10121787;29;20216;-84
2021/01/14 20:31:23;;;;;;;10.70;6.30;;;;;;;;;;10119874;29;20247;-83
2021/01/14 20:36:25;;;;;;;13.50;6.70;;;;;;;;;;10135703;29;20713;-85
2021/01/14 20:41:27;;;;;;;12.30;6.70;;;;;;;;;;10122957;29;20694;-82
2021/01/14 20:46:32;;;;;;;12.17;6.40;;;;;;;;;;10132766;29;20215;-84
2021/01/14 20:51:34;;;;;;;11.17;6.97;;;;;;;;;;10142683;29;20593;-85
2021/01/14 20:56:36;;;;;;;12.60;6.87;;;;;;;;;;10115655;29;20211;-85
2021/01/14 21:01:39;;;;;;;12.73;6.83;;;;;;;;;;10121494;29;20866;-83
2021/01/14 21:06:41;;;;;;;12.73;6.83;;;;;;;;;;10124776;29;20223;-84
2021/01/14 21:11:44;;;;;;;14.07;7.47;;;;;;;;;;10128973;29;20214;-84
2021/01/14 21:16:49;;;;;;;13.20;7.23;;;;;;;;;;10133579;29;20608;-85
2021/01/14 21:21:51;;;;;;;13.47;8.53;;;;;;;;;;10088486;29;20610;-84
2021/01/14 21:26:53;;;;;;;14.07;7.30;;;;;;;;;;10089322;29;20223;-85
2021/01/14 21:31:57;;;;;;;14.47;7.83;;;;;;;;;;10085548;29;20224;-83
2021/01/14 21:36:59;;;;;;;11.70;7.63;;;;;;;;;;10118749;29;20223;-85
2021/01/14 21:42:01;;;;;;;12.67;7.20;;;;;;;;;;10102790;29;20213;-84
2021/01/14 21:47:05;;;;;;;13.13;7.90;;;;;;;;;;10092730;29;20228;-85
2021/01/14 21:52:08;;;;;;;13.77;7.63;;;;;;;;;;10099504;29;20216;-82
2021/01/14 21:57:09;;;;;;;12.87;7.10;;;;;;;;;;10091764;29;20926;-84
2021/01/14 22:02:12;;;;;;;14.67;7.70;;;;;;;;;;10095006;29;20220;-84
2021/01/14 22:07:14;;;;;;;12.53;7.27;;;;;;;;;;10090303;29;20664;-84
2021/01/14 22:12:16;;;;;;;14.27;7.30;;;;;;;;;;10085809;29;20663;-84
2021/01/14 22:17:19;;;;;;;12.00;7.50;;;;;;;;;;10083560;29;20513;-84
2021/01/14 22:22:22;;;;;;;14.23;7.20;;;;;;;;;;10130632;29;20243;-84
2021/01/14 22:27:24;;;;;;;11.57;7.33;;;;;;;;;;10124483;29;20737;-83
2021/01/14 22:32:26;;;;;;;14.70;7.60;;;;;;;;;;10124090;29;20227;-85
2021/01/14 22:37:29;;;;;;;14.43;7.87;;;;;;;;;;10129076;29;20608;-85
2021/01/14 22:42:31;;;;;;;12.77;7.47;;;;;;;;;;10138835;29;20643;-82
2021/01/14 22:47:33;;;;;;;14.00;7.37;;;;;;;;;;10135723;29;20259;-85
2021/01/14 22:52:35;;;;;;;12.43;7.67;;;;;;;;;;10137686;29;20368;-84
2021/01/14 22:57:41;;;;;;;13.30;7.23;;;;;;;;;;10133351;29;20222;-84
2021/01/14 23:02:44;;;;;;;13.63;7.60;;;;;;;;;;10133434;29;20380;-84
2021/01/14 23:07:46;;;;;;;12.30;6.87;;;;;;;;;;10138550;29;20592;-83
2021/01/14 23:12:48;;;;;;;12.07;6.93;;;;;;;;;;10136138;29;20224;-83
2021/01/14 23:17:50;;;;;;;13.40;7.33;;;;;;;;;;10136973;29;20251;-84
2021/01/14 23:22:53;;;;;;;13.47;7.50;;;;;;;;;;10138997;29;20235;-84
2021/01/14 23:27:55;;;;;;;10.93;6.90;;;;;;;;;;10144178;29;20216;-85
2021/01/14 23:32:58;;;;;;;11.97;7.27;;;;;;;;;;10139685;29;20223;-84
2021/01/14 23:38:00;;;;;;;13.73;7.33;;;;;;;;;;10154736;29;20243;-84
2021/01/14 23:43:02;;;;;;;10.17;6.33;;;;;;;;;;10138344;29;20559;-84
2021/01/14 23:48:05;;;;;;;11.30;6.90;;;;;;;;;;10138355;29;20224;-85
2021/01/14 23:53:07;;;;;;;12.53;6.93;;;;;;;;;;10140336;29;20226;-84
2021/01/14 23:58:09;;;;;;;12.33;6.50;;;;;;;;;;10144114;29;20239;-83
